HE46 weather

El Sharqi Airport
North Sinai Governorate, Egypt

Public forecast

Using degrees Celsius for public forecast. Weather courtesy of forecast.io.

METAR (pilot weather report)

Closest report is El Arish International Airport, 77.0 nm (142.5 km) NE. Retrieved 2019/03/25 23:00 UTC (39 minutes ago):

HEAR 252300Z 00000KT CAVOK 09/06 Q1010 NOSIG

TAF (pilot weather forecast)

Forecast is more than 12 hours old.

Closest forecast is El Arish International Airport, 77.0 nm (142.5 km) NE. Retrieved 2019/03/25 06:14 UTC (17 hours ago):

TAF HEAR 250500Z 2506/2612 34009KT 9999 SCT020